Terminal Aerodrome Forecast
Issued by NWS

Home | Current Version | Previous Version | Text Only | Print | Product List | Glossary Off
Versions: 1 2 3 4 5 6 7 8 9 10 11 12 13

139
FTUS42 KMHX 081154
TAFPGV
TAF
KPGV 081154Z 0812/0912 30005KT P6SM SKC
     FM082100 21007KT P6SM VCSH BKN050
     FM090600 26005KT P6SM SCT030
      AMD LTD TO CLD VIS AND WIND=

USA.gov is the U.S. government's official web portal to all federal, state and local government web resources and services.